16CA weather

Police Pistol Range Heliport
San Francisco, California, United States

Public forecast

Using degrees Fahrenheit for public forecast. Weather courtesy of forecast.io.

Closest aviation weather report (METAR) to Police Pistol Range Heliport

Closest report is San Francisco International Airport, 8.4 nm (15.6 km) SE. Retrieved 2020/03/29 13:56 UTC (56 minutes ago):

KSFO 291356Z 13006KT 7SM -RA FEW020 BKN041 OVC050 10/08 A3010 RMK AO2 SLP192 P0005 T01000083

Closest aviation forecast (TAF) to Police Pistol Range Heliport

Closest forecast is San Francisco International Airport, 8.4 nm (15.6 km) SE. Retrieved 2020/03/29 12:27 UTC (2 hours ago):

TAF KSFO 291125Z 2912/3018 16005KT 6SM -SHRA BR FEW015 BKN020 OVC035 TEMPO 2913/2917 2SM SHRA BR BKN012 OVC020 FM291700 28010KT 5SM -SHRA BR BKN030 OVC040 FM292000 28015KT P6SM VCSH SCT030 BKN040 FM300500 27010KT P6SM SCT025 BKN040 FM301000 26008KT P6SM SCT020 BKN030